ADDS METAR Data INFO
IDs: Format: Raw Decoded Include TAF

Data at: 2006 UTC 19 Oct 2017

K14Y 191952Z AUTO 15008G20KT 7SM CLR 21/03 A2991 RMK AO2
K14Y 191932Z AUTO 15014G21KT 10SM CLR 21/03 A2992 RMK AO2
K14Y 191912Z AUTO 15013G23KT 10SM CLR 20/02 A2993 RMK AO2
K14Y 191853Z AUTO 15016G22KT 10SM CLR 20/02 A2993 RMK AO2
K14Y 191832Z AUTO 14015G22KT 10SM CLR 20/02 A2995 RMK AO2
K14Y 191757Z AUTO 15018G24KT 10SM CLR 18/01 A2996 RMK AO2
K14Y 191733Z AUTO 14013G20KT 7SM CLR 18/01 A2997 RMK AO2
K14Y 191712Z AUTO 14011KT 10SM CLR 18/01 A2998 RMK AO2
K14Y 191652Z AUTO 15012G18KT 10SM CLR 16/01 A2998 RMK AO2
K14Y 191633Z AUTO 15012G16KT 7SM CLR 16/01 A2999 RMK AO2
K14Y 191612Z AUTO 14009KT 7SM CLR 15/01 A3000 RMK AO2
K14Y 191552Z AUTO 12011KT 7SM CLR 13/00 A3000 RMK AO2
K14Y 191532Z AUTO 13008KT 7SM CLR 14/00 A3000 RMK AO2
K14Y 191513Z AUTO 15007KT 10SM CLR 12/00 A3001 RMK AO2
K14Y 191452Z AUTO 13003KT 10SM CLR 09/01 A3001 RMK AO2
K14Y 191432Z AUTO 13005KT 10SM CLR 06/01 A3001 RMK AO2
K14Y 191412Z AUTO 13003KT 10SM CLR 04/00 A3001 RMK AO2
K14Y 191352Z AUTO 15003KT 10SM CLR 03/00 A3000 RMK AO2
K14Y 191332Z AUTO 12003KT 10SM CLR 02/00 A3000 RMK AO2
K14Y 191312Z AUTO 11003KT 10SM CLR 02/00 A3000 RMK AO2
K14Y 191252Z AUTO 14005KT 10SM CLR 02/00 A3001 RMK AO2
K14Y 191233Z AUTO 15004KT 10SM CLR 00/00 A3000 RMK AO2
K14Y 191212Z AUTO 00000KT 10SM CLR 01/00 A3000 RMK AO2
K14Y 191153Z AUTO 00000KT 10SM CLR 01/00 A3000 RMK AO2
K14Y 191132Z AUTO 00000KT 10SM CLR 01/00 A3000 RMK AO2
K14Y 191112Z AUTO 00000KT 10SM CLR 01/00 A3000 RMK AO2
K14Y 191052Z AUTO 00000KT 10SM CLR 02/00 A3000 RMK AO2
K14Y 191033Z AUTO 18004KT 10SM CLR 02/00 A3000 RMK AO2
K14Y 191012Z AUTO 18005KT 10SM CLR 02/00 A3000 RMK AO2
K14Y 190952Z AUTO 18005KT 10SM CLR 01/00 A3000 RMK AO2
K14Y 190932Z AUTO 17005KT 10SM CLR 02/00 A3000 RMK AO2
K14Y 190913Z AUTO 18004KT 10SM CLR 02/00 A3000 RMK AO2
K14Y 190852Z AUTO 18005KT 10SM CLR 01/00 A3000 RMK AO2
K14Y 190832Z AUTO 17003KT 10SM CLR 02/00 A3000 RMK AO2
K14Y 190813Z AUTO 00000KT 10SM CLR 03/00 A3001 RMK AO2
K14Y 190752Z AUTO 20004KT 10SM CLR 05/00 A3000 RMK AO2
K14Y 190732Z AUTO 22005KT 10SM CLR 05/00 A3000 RMK AO2
K14Y 190713Z AUTO 21004KT 10SM CLR 05/00 A3000 RMK AO2
K14Y 190652Z AUTO 19005KT 10SM CLR 04/00 A3000 RMK AO2
K14Y 190632Z AUTO 19006KT 10SM CLR 04/00 A3000 RMK AO2
K14Y 190612Z AUTO 19005KT 10SM CLR 05/M01 A3000 RMK AO2
K14Y 190552Z AUTO 20005KT 10SM CLR 06/M01 A3000 RMK AO2
K14Y 190533Z AUTO 20005KT 10SM CLR 06/M01 A3000 RMK AO2
K14Y 190512Z AUTO 20006KT 10SM CLR 06/M01 A2999 RMK AO2
K14Y 190453Z AUTO 20007KT 10SM CLR 06/M01 A2998 RMK AO2
K14Y 190432Z AUTO 20006KT 10SM CLR 06/M02 A2998 RMK AO2
K14Y 190412Z AUTO 20006KT 10SM CLR 05/M02 A2998 RMK AO2
K14Y 190352Z AUTO 20004KT 10SM CLR 06/M03 A2998 RMK AO2
K14Y 190332Z AUTO 18005KT 10SM CLR 06/M02 A2998 RMK AO2
K14Y 190313Z AUTO 20004KT 10SM CLR 07/M03 A2998 RMK AO2
K14Y 190252Z AUTO 20005KT 10SM CLR 07/M03 A2998 RMK AO2
K14Y 190233Z AUTO 19004KT 10SM CLR 07/M03 A2996 RMK AO2
K14Y 190212Z AUTO 20006KT 10SM CLR 08/M03 A2996 RMK AO2
K14Y 190152Z AUTO 21007KT 10SM CLR 10/M03 A2997 RMK AO2
K14Y 190132Z AUTO 21007KT 10SM CLR 10/M04 A2996 RMK AO2
K14Y 190113Z AUTO 22007KT 10SM CLR 10/M05 A2996 RMK AO2
K14Y 190052Z AUTO 22007KT 10SM CLR 11/M05 A2996 RMK AO2
K14Y 190032Z AUTO 22008KT 10SM CLR 11/M04 A2996 RMK AO2
K14Y 190012Z AUTO 23009KT 10SM CLR 11/M05 A2995 RMK AO2
K14Y 182353Z AUTO 23010G14KT 10SM CLR 11/M03 A2995 RMK AO2
K14Y 182332Z AUTO 23006KT 10SM CLR 12/M03 A2994 RMK AO2
K14Y 182313Z AUTO 22008KT 10SM CLR 12/M03 A2993 RMK AO2
K14Y 182252Z AUTO 22010G15KT 10SM CLR 13/M03 A2992 RMK AO2
K14Y 182232Z AUTO 23010G16KT 10SM CLR 13/M04 A2991 RMK AO2
K14Y 182212Z AUTO 24012G15KT 10SM CLR 14/M05 A2991 RMK AO2
K14Y 182153Z AUTO 25012G21KT 10SM CLR 14/M05 A2990 RMK AO2
K14Y 182132Z AUTO 22013G19KT 10SM CLR 15/M04 A2990 RMK AO2
K14Y 182112Z AUTO 23012G17KT 10SM CLR 15/M05 A2990 RMK AO2
K14Y 182052Z AUTO 25015G20KT 10SM CLR 16/M05 A2989 RMK AO2
K14Y 182033Z AUTO 24014G19KT 10SM CLR 16/M06 A2988 RMK AO2
K14Y 182012Z AUTO 26011G21KT 10SM CLR 16/M05 A2988 RMK AO2
K14Y 181952Z AUTO 25009G15KT 10SM CLR 16/M02 A2986 RMK AO2
K14Y 181932Z AUTO 27015G20KT 10SM CLR 16/M02 A2985 RMK AO2
K14Y 181912Z AUTO 27014G21KT 10SM CLR 17/M01 A2984 RMK AO2
K14Y 181853Z AUTO 28013G20KT 10SM CLR 17/00 A2984 RMK AO2
K14Y 181832Z AUTO 28012G20KT 10SM CLR 17/M02 A2985 RMK AO2
K14Y 181812Z AUTO 27013G17KT 10SM CLR 17/00 A2985 RMK AO2
K14Y 181753Z AUTO 27015G26KT 10SM CLR 17/M01 A2985 RMK AO2
K14Y 181732Z AUTO 28016G27KT 10SM CLR 17/00 A2984 RMK AO2
K14Y 181713Z AUTO 26016G21KT 10SM CLR 17/02 A2983 RMK AO2
K14Y 181652Z AUTO 26017G22KT 10SM CLR 16/02 A2982 RMK AO2
K14Y 181632Z AUTO 27016G22KT 10SM CLR 16/02 A2981 RMK AO2
K14Y 181613Z AUTO 27009G17KT 10SM CLR 16/04 A2981 RMK AO2
K14Y 181552Z AUTO 26012KT 10SM CLR 16/05 A2979 RMK AO2
K14Y 181532Z AUTO 26007KT 10SM CLR 14/06 A2978 RMK AO2
K14Y 181513Z AUTO 23007KT 10SM CLR 13/06 A2977 RMK AO2
K14Y 181452Z AUTO 20006KT 10SM CLR 12/06 A2977 RMK AO2
K14Y 181433Z AUTO 20008KT 10SM CLR 12/06 A2976 RMK AO2
K14Y 181412Z AUTO 19007KT 10SM CLR 12/06 A2975 RMK AO2
K14Y 181352Z AUTO 19007KT 10SM CLR 11/06 A2974 RMK AO2
K14Y 181332Z AUTO 16006KT 10SM CLR 11/05 A2970 RMK AO2
K14Y 181313Z AUTO 15007KT 10SM CLR 11/05 A2970 RMK AO2
K14Y 181252Z AUTO 14008KT 10SM CLR 10/05 A2970 RMK AO2
K14Y 181232Z AUTO 15007KT 10SM CLR 10/05 A2971 RMK AO2
K14Y 181212Z AUTO 14008KT 10SM CLR 10/05 A2971 RMK AO2
K14Y 181153Z AUTO 15007KT 10SM CLR 11/05 A2971 RMK AO2
K14Y 181132Z AUTO 15009KT 10SM CLR 11/05 A2971 RMK AO2
K14Y 181112Z AUTO 15011G15KT 10SM CLR 12/05 A2972 RMK AO2
K14Y 181052Z AUTO 15010KT 10SM CLR 11/05 A2972 RMK AO2
K14Y 181032Z AUTO 15009KT 10SM CLR 11/06 A2974 RMK AO2
K14Y 181012Z AUTO 15007KT 10SM CLR 11/05 A2975 RMK AO2
K14Y 180952Z AUTO 14006KT 10SM CLR 11/05 A2976 RMK AO2
K14Y 180933Z AUTO 15007KT 10SM CLR 11/05 A2976 RMK AO2
K14Y 180912Z AUTO 15007KT 10SM CLR 11/05 A2977 RMK AO2
K14Y 180852Z AUTO 15007KT 10SM CLR 11/05 A2977 RMK AO2
K14Y 180832Z AUTO 15007KT 10SM CLR 11/05 A2977 RMK AO2
K14Y 180813Z AUTO 16007KT 10SM CLR 11/05 A2978 RMK AO2